sensor_id;sensor_type;location;lat;lon;timestamp;pressure;altitude;pressure_sealevel;temperature;humidity
39793;BME280;26080;42.264;24.536;2023-05-12T00:00:21;99785.66;;;10.16;100.00
39793;BME280;26080;42.264;24.536;2023-05-12T00:02:47;99794.28;;;10.18;100.00
39793;BME280;26080;42.264;24.536;2023-05-12T00:05:12;99789.63;;;10.26;100.00
39793;BME280;26080;42.264;24.536;2023-05-12T00:07:38;99791.25;;;10.30;100.00
39793;BME280;26080;42.264;24.536;2023-05-12T00:10:03;99785.16;;;10.30;100.00
39793;BME280;26080;42.264;24.536;2023-05-12T00:12:29;99770.75;;;10.18;100.00
39793;BME280;26080;42.264;24.536;2023-05-12T00:14:55;99786.88;;;10.31;100.00
39793;BME280;26080;42.264;24.536;2023-05-12T00:17:20;99779.72;;;10.34;100.00
39793;BME280;26080;42.264;24.536;2023-05-12T00:19:46;99765.28;;;10.24;100.00
39793;BME280;26080;42.264;24.536;2023-05-12T00:22:13;99784.84;;;10.37;100.00
39793;BME280;26080;42.264;24.536;2023-05-12T00:24:39;99788.81;;;10.48;100.00
39793;BME280;26080;42.264;24.536;2023-05-12T00:27:05;99766.16;;;10.47;100.00
39793;BME280;26080;42.264;24.536;2023-05-12T00:29:32;99783.38;;;10.52;100.00
39793;BME280;26080;42.264;24.536;2023-05-12T00:31:57;99786.19;;;10.48;100.00
39793;BME280;26080;42.264;24.536;2023-05-12T00:34:23;99792.28;;;10.48;100.00
39793;BME280;26080;42.264;24.536;2023-05-12T00:36:48;99788.63;;;10.52;100.00
39793;BME280;26080;42.264;24.536;2023-05-12T00:39:14;99792.78;;;10.58;100.00
39793;BME280;26080;42.264;24.536;2023-05-12T00:41:39;99795.16;;;10.64;100.00
39793;BME280;26080;42.264;24.536;2023-05-12T00:44:05;99799.72;;;10.59;100.00
39793;BME280;26080;42.264;24.536;2023-05-12T00:46:31;99800.75;;;10.55;100.00
39793;BME280;26080;42.264;24.536;2023-05-12T00:48:57;99796.56;;;10.51;100.00
39793;BME280;26080;42.264;24.536;2023-05-12T00:51:24;99802.16;;;10.63;100.00
39793;BME280;26080;42.264;24.536;2023-05-12T00:53:50;99797.56;;;10.70;100.00
39793;BME280;26080;42.264;24.536;2023-05-12T00:56:17;99802.47;;;10.78;100.00
39793;BME280;26080;42.264;24.536;2023-05-12T00:58:44;99794.13;;;10.68;100.00
39793;BME280;26080;42.264;24.536;2023-05-12T01:01:10;99796.84;;;10.65;100.00
39793;BME280;26080;42.264;24.536;2023-05-12T01:03:35;99793.66;;;10.58;100.00
39793;BME280;26080;42.264;24.536;2023-05-12T01:08:51;99796.00;;;10.64;100.00
39793;BME280;26080;42.264;24.536;2023-05-12T01:11:16;99792.09;;;10.53;100.00
39793;BME280;26080;42.264;24.536;2023-05-12T01:13:42;99793.78;;;10.55;100.00
39793;BME280;26080;42.264;24.536;2023-05-12T01:16:08;99804.47;;;10.49;100.00
39793;BME280;26080;42.264;24.536;2023-05-12T01:18:38;99803.06;;;10.41;100.00
39793;BME280;26080;42.264;24.536;2023-05-12T01:21:04;99794.59;;;10.34;100.00
39793;BME280;26080;42.264;24.536;2023-05-12T01:23:41;99802.91;;;10.45;100.00
39793;BME280;26080;42.264;24.536;2023-05-12T01:26:09;99794.25;;;10.43;100.00
39793;BME280;26080;42.264;24.536;2023-05-12T01:28:36;99795.94;;;10.44;100.00
39793;BME280;26080;42.264;24.536;2023-05-12T01:31:05;99792.16;;;10.51;100.00
39793;BME280;26080;42.264;24.536;2023-05-12T01:33:31;99788.47;;;10.57;100.00
39793;BME280;26080;42.264;24.536;2023-05-12T01:35:57;99789.38;;;10.56;100.00
39793;BME280;26080;42.264;24.536;2023-05-12T01:38:22;99783.88;;;10.62;100.00
39793;BME280;26080;42.264;24.536;2023-05-12T01:40:48;99790.47;;;10.50;100.00
39793;BME280;26080;42.264;24.536;2023-05-12T01:43:13;99790.34;;;10.53;100.00
39793;BME280;26080;42.264;24.536;2023-05-12T01:45:38;99792.84;;;10.56;100.00
39793;BME280;26080;42.264;24.536;2023-05-12T01:48:04;99791.19;;;10.54;100.00
39793;BME280;26080;42.264;24.536;2023-05-12T01:50:29;99796.88;;;10.43;100.00
39793;BME280;26080;42.264;24.536;2023-05-12T01:52:55;99793.50;;;10.39;100.00
39793;BME280;26080;42.264;24.536;2023-05-12T01:55:20;99791.25;;;10.30;100.00
39793;BME280;26080;42.264;24.536;2023-05-12T01:57:46;99787.72;;;10.31;100.00
39793;BME280;26080;42.264;24.536;2023-05-12T02:00:12;99783.41;;;10.30;100.00
39793;BME280;26080;42.264;24.536;2023-05-12T02:02:38;99778.88;;;10.34;100.00
39793;BME280;26080;42.264;24.536;2023-05-12T02:05:04;99782.34;;;10.34;100.00
39793;BME280;26080;42.264;24.536;2023-05-12T02:07:29;99781.91;;;10.23;100.00
39793;BME280;26080;42.264;24.536;2023-05-12T02:09:55;99782.59;;;10.28;100.00
39793;BME280;26080;42.264;24.536;2023-05-12T02:12:20;99781.44;;;10.35;100.00
39793;BME280;26080;42.264;24.536;2023-05-12T02:14:46;99781.44;;;10.35;100.00
39793;BME280;26080;42.264;24.536;2023-05-12T02:17:12;99785.25;;;10.27;100.00
39793;BME280;26080;42.264;24.536;2023-05-12T02:19:38;99784.63;;;10.20;100.00
39793;BME280;26080;42.264;24.536;2023-05-12T02:22:03;99765.63;;;10.15;100.00
39793;BME280;26080;42.264;24.536;2023-05-12T02:24:29;99783.41;;;10.30;100.00
39793;BME280;26080;42.264;24.536;2023-05-12T02:26:54;99783.28;;;10.33;100.00
39793;BME280;26080;42.264;24.536;2023-05-12T02:29:20;99750.03;;;10.12;100.00
39793;BME280;26080;42.264;24.536;2023-05-12T02:31:45;99777.91;;;10.36;100.00
39793;BME280;26080;42.264;24.536;2023-05-12T02:34:11;99774.44;;;10.36;100.00
39793;BME280;26080;42.264;24.536;2023-05-12T02:36:36;99779.59;;;10.37;100.00
39793;BME280;26080;42.264;24.536;2023-05-12T02:39:02;99767.56;;;10.33;100.00
39793;BME280;26080;42.264;24.536;2023-05-12T02:41:27;99774.03;;;10.47;100.00
39793;BME280;26080;42.264;24.536;2023-05-12T02:43:53;99753.63;;;10.33;100.00
39793;BME280;26080;42.264;24.536;2023-05-12T02:46:18;99782.22;;;10.37;100.00
39793;BME280;26080;42.264;24.536;2023-05-12T02:48:48;99782.06;;;10.42;100.00
39793;BME280;26080;42.264;24.536;2023-05-12T02:51:13;99790.81;;;10.41;100.00
39793;BME280;26080;42.264;24.536;2023-05-12T02:53:38;99781.56;;;10.32;100.00
39793;BME280;26080;42.264;24.536;2023-05-12T02:56:06;99789.41;;;10.32;100.00
39793;BME280;26080;42.264;24.536;2023-05-12T02:58:32;99789.28;;;10.35;100.00
39793;BME280;26080;42.264;24.536;2023-05-12T03:00:58;99794.78;;;10.29;100.00
39793;BME280;26080;42.264;24.536;2023-05-12T03:03:23;99799.19;;;10.27;100.00
39793;BME280;26080;42.264;24.536;2023-05-12T03:05:48;99805.75;;;10.16;100.00
39793;BME280;26080;42.264;24.536;2023-05-12T03:08:15;99765.28;;;10.01;100.00
39793;BME280;26080;42.264;24.536;2023-05-12T03:10:40;99799.53;;;10.18;100.00
39793;BME280;26080;42.264;24.536;2023-05-12T03:13:08;99769.88;;;9.94;100.00
39793;BME280;26080;42.264;24.536;2023-05-12T03:15:33;99800.09;;;10.03;100.00
39793;BME280;26080;42.264;24.536;2023-05-12T03:17:58;99798.59;;;9.96;100.00
39793;BME280;26080;42.264;24.536;2023-05-12T03:20:24;99806.53;;;9.94;100.00
39793;BME280;26080;42.264;24.536;2023-05-12T03:22:49;99811.69;;;9.96;100.00
39793;BME280;26080;42.264;24.536;2023-05-12T03:25:15;99810.16;;;9.90;100.00
39793;BME280;26080;42.264;24.536;2023-05-12T03:27:40;99816.75;;;10.00;100.00
39793;BME280;26080;42.264;24.536;2023-05-12T03:30:06;99812.34;;;10.02;100.00
39793;BME280;26080;42.264;24.536;2023-05-12T03:32:32;99811.75;;;9.94;100.00
39793;BME280;26080;42.264;24.536;2023-05-12T03:34:57;99824.03;;;9.92;100.00
39793;BME280;26080;42.264;24.536;2023-05-12T03:37:23;99825.63;;;9.96;100.00
39793;BME280;26080;42.264;24.536;2023-05-12T03:39:48;99824.44;;;10.05;100.00
39793;BME280;26080;42.264;24.536;2023-05-12T03:42:14;99819.94;;;10.08;100.00
39793;BME280;26080;42.264;24.536;2023-05-12T03:44:39;99830.72;;;10.24;100.00
39793;BME280;26080;42.264;24.536;2023-05-12T03:47:05;99834.06;;;10.28;100.00
39793;BME280;26080;42.264;24.536;2023-05-12T03:49:31;99836.88;;;10.23;100.00
39793;BME280;26080;42.264;24.536;2023-05-12T03:51:56;99814.78;;;10.07;100.00
39793;BME280;26080;42.264;24.536;2023-05-12T03:54:21;99836.03;;;10.23;100.00
39793;BME280;26080;42.264;24.536;2023-05-12T03:56:47;99836.75;;;10.26;100.00
39793;BME280;26080;42.264;24.536;2023-05-12T03:59:12;99827.66;;;10.36;100.00
39793;BME280;26080;42.264;24.536;2023-05-12T04:01:38;99830.47;;;10.54;100.00
39793;BME280;26080;42.264;24.536;2023-05-12T04:04:03;99835.56;;;10.58;100.00
39793;BME280;26080;42.264;24.536;2023-05-12T04:06:29;99839.38;;;10.50;100.00
39793;BME280;26080;42.264;24.536;2023-05-12T04:08:55;99840.09;;;10.53;100.00
39793;BME280;26080;42.264;24.536;2023-05-12T04:11:20;99841.38;;;10.65;100.00
39793;BME280;26080;42.264;24.536;2023-05-12T04:13:46;99848.34;;;10.66;100.00
39793;BME280;26080;42.264;24.536;2023-05-12T04:16:11;99848.25;;;10.69;100.00
39793;BME280;26080;42.264;24.536;2023-05-12T04:18:37;99854.19;;;10.73;100.00
39793;BME280;26080;42.264;24.536;2023-05-12T04:21:02;99841.22;;;10.70;100.00
39793;BME280;26080;42.264;24.536;2023-05-12T04:23:28;99850.13;;;10.87;100.00
39793;BME280;26080;42.264;24.536;2023-05-12T04:25:53;99845.81;;;10.86;100.00
39793;BME280;26080;42.264;24.536;2023-05-12T04:28:19;99849.94;;;10.92;100.00
39793;BME280;26080;42.264;24.536;2023-05-12T04:30:44;99851.16;;;10.83;100.00
39793;BME280;26080;42.264;24.536;2023-05-12T04:33:10;99850.78;;;10.92;100.00
39793;BME280;26080;42.264;24.536;2023-05-12T04:35:35;99824.53;;;10.72;100.00
39793;BME280;26080;42.264;24.536;2023-05-12T04:38:01;99821.91;;;10.72;100.00
39793;BME280;26080;42.264;24.536;2023-05-12T04:40:27;99843.47;;;10.79;100.00
39793;BME280;26080;42.264;24.536;2023-05-12T04:42:52;99844.00;;;10.65;100.00
39793;BME280;26080;42.264;24.536;2023-05-12T04:45:18;99850.03;;;10.67;100.00
39793;BME280;26080;42.264;24.536;2023-05-12T04:47:43;99835.94;;;10.71;100.00
39793;BME280;26080;42.264;24.536;2023-05-12T04:50:09;99850.34;;;10.81;100.00
39793;BME280;26080;42.264;24.536;2023-05-12T04:52:35;99849.22;;;10.88;100.00
39793;BME280;26080;42.264;24.536;2023-05-12T04:55:01;99847.25;;;10.93;100.00
39793;BME280;26080;42.264;24.536;2023-05-12T04:57:26;99823.97;;;10.64;100.00
39793;BME280;26080;42.264;24.536;2023-05-12T04:59:52;99848.16;;;10.92;100.00
39793;BME280;26080;42.264;24.536;2023-05-12T05:02:17;99850.28;;;11.05;100.00
39793;BME280;26080;42.264;24.536;2023-05-12T05:04:43;99814.22;;;10.89;100.00
39793;BME280;26080;42.264;24.536;2023-05-12T05:07:08;99847.66;;;11.05;100.00
39793;BME280;26080;42.264;24.536;2023-05-12T05:09:34;99839.03;;;11.03;100.00
39793;BME280;26080;42.264;24.536;2023-05-12T05:11:59;99855.53;;;11.26;100.00
39793;BME280;26080;42.264;24.536;2023-05-12T05:14:25;99816.94;;;11.08;100.00
39793;BME280;26080;42.264;24.536;2023-05-12T05:16:50;99828.25;;;11.31;100.00
39793;BME280;26080;42.264;24.536;2023-05-12T05:19:16;99857.16;;;11.49;100.00
39793;BME280;26080;42.264;24.536;2023-05-12T05:21:42;99850.91;;;11.53;100.00
39793;BME280;26080;42.264;24.536;2023-05-12T05:24:07;99828.78;;;11.59;100.00
39793;BME280;26080;42.264;24.536;2023-05-12T05:26:33;99851.41;;;12.02;100.00
39793;BME280;26080;42.264;24.536;2023-05-12T05:28:58;99857.97;;;12.12;100.00
39793;BME280;26080;42.264;24.536;2023-05-12T05:31:24;99852.31;;;12.22;100.00
39793;BME280;26080;42.264;24.536;2023-05-12T05:33:49;99826.44;;;12.12;100.00
39793;BME280;26080;42.264;24.536;2023-05-12T05:36:15;99844.09;;;12.48;100.00
39793;BME280;26080;42.264;24.536;2023-05-12T05:38:40;99858.84;;;12.69;100.00
39793;BME280;26080;42.264;24.536;2023-05-12T05:41:06;99862.75;;;12.80;100.00
39793;BME280;26080;42.264;24.536;2023-05-12T05:43:32;99849.41;;;13.01;100.00
39793;BME280;26080;42.264;24.536;2023-05-12T05:45:57;99854.44;;;13.06;100.00
39793;BME280;26080;42.264;24.536;2023-05-12T05:48:23;99854.22;;;13.11;100.00
39793;BME280;26080;42.264;24.536;2023-05-12T05:50:52;99851.09;;;13.21;100.00
39793;BME280;26080;42.264;24.536;2023-05-12T05:53:19;99832.53;;;13.24;100.00
39793;BME280;26080;42.264;24.536;2023-05-12T05:55:47;99874.41;;;13.63;100.00
39793;BME280;26080;42.264;24.536;2023-05-12T05:58:13;99876.09;;;13.99;100.00
39793;BME280;26080;42.264;24.536;2023-05-12T06:00:42;99880.13;;;13.89;100.00
39793;BME280;26080;42.264;24.536;2023-05-12T06:03:08;99880.00;;;13.75;100.00
39793;BME280;26080;42.264;24.536;2023-05-12T06:05:34;99871.47;;;13.52;100.00
39793;BME280;26080;42.264;24.536;2023-05-12T06:07:59;99877.13;;;13.62;100.00
39793;BME280;26080;42.264;24.536;2023-05-12T06:10:25;99878.38;;;13.72;100.00
39793;BME280;26080;42.264;24.536;2023-05-12T06:12:50;99872.25;;;13.72;100.00
39793;BME280;26080;42.264;24.536;2023-05-12T06:15:16;99880.50;;;13.99;100.00
39793;BME280;26080;42.264;24.536;2023-05-12T06:17:42;99874.63;;;13.93;100.00
39793;BME280;26080;42.264;24.536;2023-05-12T06:20:08;99880.22;;;13.87;100.00
39793;BME280;26080;42.264;24.536;2023-05-12T06:22:34;99890.41;;;13.93;100.00
39793;BME280;26080;42.264;24.536;2023-05-12T06:25:00;99882.16;;;14.17;100.00
39793;BME280;26080;42.264;24.536;2023-05-12T06:27:26;99887.63;;;13.97;100.00
39793;BME280;26080;42.264;24.536;2023-05-12T06:29:51;99887.16;;;14.06;100.00
39793;BME280;26080;42.264;24.536;2023-05-12T06:32:17;99885.81;;;14.14;100.00
39793;BME280;26080;42.264;24.536;2023-05-12T06:34:43;99870.31;;;14.26;100.00
39793;BME280;26080;42.264;24.536;2023-05-12T06:37:08;99889.19;;;14.01;100.00
39793;BME280;26080;42.264;24.536;2023-05-12T06:39:33;99887.31;;;14.03;100.00
39793;BME280;26080;42.264;24.536;2023-05-12T06:42:00;99883.19;;;13.97;100.00
39793;BME280;26080;42.264;24.536;2023-05-12T06:44:25;99884.59;;;14.04;100.00
39793;BME280;26080;42.264;24.536;2023-05-12T06:46:51;99885.34;;;13.73;100.00
39793;BME280;26080;42.264;24.536;2023-05-12T06:49:16;99880.38;;;13.84;100.00
39793;BME280;26080;42.264;24.536;2023-05-12T06:51:42;99885.41;;;13.89;100.00
39793;BME280;26080;42.264;24.536;2023-05-12T06:54:07;99864.41;;;14.20;100.00
39793;BME280;26080;42.264;24.536;2023-05-12T06:56:33;99861.75;;;14.05;100.00
39793;BME280;26080;42.264;24.536;2023-05-12T06:58:58;99886.72;;;14.31;100.00
39793;BME280;26080;42.264;24.536;2023-05-12T07:01:30;99887.28;;;14.20;100.00
39793;BME280;26080;42.264;24.536;2023-05-12T07:03:56;99883.28;;;14.13;100.00
39793;BME280;26080;42.264;24.536;2023-05-12T07:06:22;99878.00;;;14.46;100.00
39793;BME280;26080;42.264;24.536;2023-05-12T07:08:48;99876.44;;;14.42;100.00
39793;BME280;26080;42.264;24.536;2023-05-12T07:11:17;99882.66;;;14.41;100.00
39793;BME280;26080;42.264;24.536;2023-05-12T07:13:50;99872.38;;;14.03;100.00
39793;BME280;26080;42.264;24.536;2023-05-12T07:16:17;99888.53;;;14.13;100.00
39793;BME280;26080;42.264;24.536;2023-05-12T07:18:43;99884.50;;;14.39;100.00
39793;BME280;26080;42.264;24.536;2023-05-12T07:21:08;99890.78;;;14.54;98.05
39793;BME280;26080;42.264;24.536;2023-05-12T07:23:35;99863.41;;;14.56;100.00
39793;BME280;26080;42.264;24.536;2023-05-12T07:26:01;99878.47;;;14.70;99.76
39793;BME280;26080;42.264;24.536;2023-05-12T07:28:34;99867.22;;;14.98;99.51
39793;BME280;26080;42.264;24.536;2023-05-12T07:31:06;99888.00;;;15.34;91.04
39793;BME280;26080;42.264;24.536;2023-05-12T07:33:32;99876.56;;;15.19;98.61
39793;BME280;26080;42.264;24.536;2023-05-12T07:35:59;99860.66;;;15.05;94.12
39793;BME280;26080;42.264;24.536;2023-05-12T07:38:24;99871.59;;;15.29;97.29
39793;BME280;26080;42.264;24.536;2023-05-12T07:40:50;99872.59;;;15.42;99.05
39793;BME280;26080;42.264;24.536;2023-05-12T07:43:16;99860.75;;;15.79;89.20
39793;BME280;26080;42.264;24.536;2023-05-12T07:45:42;99866.72;;;15.97;86.34
39793;BME280;26080;42.264;24.536;2023-05-12T07:48:07;99866.09;;;15.63;86.37
39793;BME280;26080;42.264;24.536;2023-05-12T07:50:33;99880.22;;;16.07;87.96
39793;BME280;26080;42.264;24.536;2023-05-12T07:52:59;99863.72;;;16.17;89.86
39793;BME280;26080;42.264;24.536;2023-05-12T07:55:24;99876.75;;;16.35;84.24
39793;BME280;26080;42.264;24.536;2023-05-12T07:57:50;99853.09;;;15.75;79.87
39793;BME280;26080;42.264;24.536;2023-05-12T08:00:16;99864.84;;;16.13;83.02
39793;BME280;26080;42.264;24.536;2023-05-12T08:02:42;99852.28;;;16.17;83.84
39793;BME280;26080;42.264;24.536;2023-05-12T08:05:09;99870.41;;;16.23;80.99
39793;BME280;26080;42.264;24.536;2023-05-12T08:07:36;99871.44;;;16.49;84.41
39793;BME280;26080;42.264;24.536;2023-05-12T08:10:03;99869.25;;;16.70;83.85
39793;BME280;26080;42.264;24.536;2023-05-12T08:12:28;99876.50;;;17.22;82.12
39793;BME280;26080;42.264;24.536;2023-05-12T08:14:54;99867.38;;;17.65;75.67
39793;BME280;26080;42.264;24.536;2023-05-12T08:17:19;99845.22;;;17.41;71.41
39793;BME280;26080;42.264;24.536;2023-05-12T08:19:46;99845.31;;;17.00;74.06
39793;BME280;26080;42.264;24.536;2023-05-12T08:22:11;99850.06;;;16.80;75.02
39793;BME280;26080;42.264;24.536;2023-05-12T08:24:37;99830.78;;;16.23;71.14
39793;BME280;26080;42.264;24.536;2023-05-12T08:27:02;99838.31;;;16.00;76.50
39793;BME280;26080;42.264;24.536;2023-05-12T08:29:28;99849.56;;;16.04;75.80
39793;BME280;26080;42.264;24.536;2023-05-12T08:31:54;99858.22;;;15.78;77.15
39793;BME280;26080;42.264;24.536;2023-05-12T08:34:19;99852.88;;;16.08;82.42
39793;BME280;26080;42.264;24.536;2023-05-12T08:36:45;99844.53;;;16.14;85.12
39793;BME280;26080;42.264;24.536;2023-05-12T08:39:11;99855.88;;;16.58;77.69
39793;BME280;26080;42.264;24.536;2023-05-12T08:44:41;99856.50;;;16.76;73.69
39793;BME280;26080;42.264;24.536;2023-05-12T08:47:07;99844.63;;;16.69;73.57
39793;BME280;26080;42.264;24.536;2023-05-12T08:49:34;99854.06;;;16.73;77.38
39793;BME280;26080;42.264;24.536;2023-05-12T08:52:01;99856.50;;;16.76;76.42
39793;BME280;26080;42.264;24.536;2023-05-12T08:54:28;99855.53;;;16.92;76.30
39793;BME280;26080;42.264;24.536;2023-05-12T08:56:54;99854.78;;;17.16;71.12
39793;BME280;26080;42.264;24.536;2023-05-12T08:59:22;99847.78;;;16.88;69.24
39793;BME280;26080;42.264;24.536;2023-05-12T09:01:48;99841.59;;;17.02;71.71
39793;BME280;26080;42.264;24.536;2023-05-12T09:04:15;99846.78;;;17.04;69.83
39793;BME280;26080;42.264;24.536;2023-05-12T09:06:41;99838.84;;;16.77;72.48
39793;BME280;26080;42.264;24.536;2023-05-12T09:09:07;99828.25;;;16.77;71.65
39793;BME280;26080;42.264;24.536;2023-05-12T09:11:33;99835.72;;;16.70;71.40
39793;BME280;26080;42.264;24.536;2023-05-12T09:14:03;99838.66;;;16.80;73.26
39793;BME280;26080;42.264;24.536;2023-05-12T09:16:38;99838.25;;;16.86;70.91
39793;BME280;26080;42.264;24.536;2023-05-12T09:19:05;99830.66;;;16.67;72.31
39793;BME280;26080;42.264;24.536;2023-05-12T09:21:31;99831.22;;;16.44;71.09
39793;BME280;26080;42.264;24.536;2023-05-12T09:24:04;99795.50;;;15.81;72.61
39793;BME280;26080;42.264;24.536;2023-05-12T09:26:32;99822.47;;;16.00;75.89
39793;BME280;26080;42.264;24.536;2023-05-12T09:29:08;99819.16;;;16.11;72.68
39793;BME280;26080;42.264;24.536;2023-05-12T09:31:34;99816.06;;;16.33;71.79
39793;BME280;26080;42.264;24.536;2023-05-12T09:33:59;99789.34;;;16.09;72.25
39793;BME280;26080;42.264;24.536;2023-05-12T09:36:26;99783.69;;;16.01;70.34
39793;BME280;26080;42.264;24.536;2023-05-12T09:39:03;99824.44;;;16.11;74.11
39793;BME280;26080;42.264;24.536;2023-05-12T09:41:29;99820.84;;;15.84;71.54
39793;BME280;26080;42.264;24.536;2023-05-12T09:43:55;99802.28;;;15.99;72.83
39793;BME280;26080;42.264;24.536;2023-05-12T09:46:21;99811.13;;;16.41;73.72
39793;BME280;26080;42.264;24.536;2023-05-12T09:48:47;99816.38;;;16.70;73.68
39793;BME280;26080;42.264;24.536;2023-05-12T09:51:15;99824.31;;;16.97;72.02
39793;BME280;26080;42.264;24.536;2023-05-12T09:53:42;99828.06;;;17.07;65.08
39793;BME280;26080;42.264;24.536;2023-05-12T09:56:10;99825.22;;;17.10;67.54
39793;BME280;26080;42.264;24.536;2023-05-12T09:58:37;99822.88;;;17.05;66.46
39793;BME280;26080;42.264;24.536;2023-05-12T10:01:06;99818.13;;;16.83;67.39
39793;BME280;26080;42.264;24.536;2023-05-12T10:03:33;99791.63;;;16.71;64.63
39793;BME280;26080;42.264;24.536;2023-05-12T10:06:02;99801.94;;;16.61;69.65
39793;BME280;26080;42.264;24.536;2023-05-12T10:08:47;99806.38;;;16.61;67.85
39793;BME280;26080;42.264;24.536;2023-05-12T10:11:15;99810.41;;;16.66;66.18
39793;BME280;26080;42.264;24.536;2023-05-12T10:13:42;99808.34;;;16.71;66.12
39793;BME280;26080;42.264;24.536;2023-05-12T10:16:08;99813.78;;;16.82;67.89
39793;BME280;26080;42.264;24.536;2023-05-12T10:18:34;99799.22;;;16.90;68.10
39793;BME280;26080;42.264;24.536;2023-05-12T10:21:01;99805.06;;;16.95;65.46
39793;BME280;26080;42.264;24.536;2023-05-12T10:23:27;99804.34;;;17.05;70.15
39793;BME280;26080;42.264;24.536;2023-05-12T10:25:53;99793.34;;;17.11;64.84
39793;BME280;26080;42.264;24.536;2023-05-12T10:28:26;99799.31;;;17.15;67.06
39793;BME280;26080;42.264;24.536;2023-05-12T10:30:52;99788.91;;;17.12;72.43
39793;BME280;26080;42.264;24.536;2023-05-12T10:33:18;99789.03;;;17.23;67.30
39793;BME280;26080;42.264;24.536;2023-05-12T10:35:44;99782.41;;;17.30;66.31
39793;BME280;26080;42.264;24.536;2023-05-12T10:38:13;99788.47;;;17.45;67.94
39793;BME280;26080;42.264;24.536;2023-05-12T10:43:27;99758.28;;;16.95;63.54
39793;BME280;26080;42.264;24.536;2023-05-12T10:46:15;99789.47;;;17.17;69.32
39793;BME280;26080;42.264;24.536;2023-05-12T10:49:00;99779.31;;;17.24;65.94
39793;BME280;26080;42.264;24.536;2023-05-12T10:51:29;99778.81;;;17.31;64.13
39793;BME280;26080;42.264;24.536;2023-05-12T10:56:35;99778.44;;;17.23;63.43
39793;BME280;26080;42.264;24.536;2023-05-12T10:59:10;99766.66;;;17.02;61.70
39793;BME280;26080;42.264;24.536;2023-05-12T11:01:37;99761.69;;;16.70;63.36
39793;BME280;26080;42.264;24.536;2023-05-12T11:06:36;99776.59;;;16.71;67.19
39793;BME280;26080;42.264;24.536;2023-05-12T11:09:03;99768.25;;;16.50;63.79
39793;BME280;26080;42.264;24.536;2023-05-12T11:11:29;99758.56;;;16.64;66.50
39793;BME280;26080;42.264;24.536;2023-05-12T11:13:55;99755.38;;;16.85;65.18
39793;BME280;26080;42.264;24.536;2023-05-12T11:16:20;99766.59;;;17.16;63.91
39793;BME280;26080;42.264;24.536;2023-05-12T11:18:45;99775.66;;;17.12;63.12
39793;BME280;26080;42.264;24.536;2023-05-12T11:21:11;99754.50;;;17.12;61.10
39793;BME280;26080;42.264;24.536;2023-05-12T11:23:36;99773.38;;;17.20;64.45
39793;BME280;26080;42.264;24.536;2023-05-12T11:26:02;99777.38;;;17.13;55.92
39793;BME280;26080;42.264;24.536;2023-05-12T11:28:40;99773.06;;;16.85;58.19
39793;BME280;26080;42.264;24.536;2023-05-12T11:31:05;99766.78;;;17.00;59.97
39793;BME280;26080;42.264;24.536;2023-05-12T11:33:31;99765.94;;;17.00;58.96
39793;BME280;26080;42.264;24.536;2023-05-12T11:35:57;99766.97;;;16.97;64.50
39793;BME280;26080;42.264;24.536;2023-05-12T11:38:22;99765.50;;;17.06;62.07
39793;BME280;26080;42.264;24.536;2023-05-12T11:40:48;99765.78;;;17.28;63.81
39793;BME280;26080;42.264;24.536;2023-05-12T11:43:19;99768.53;;;17.39;65.55
39793;BME280;26080;42.264;24.536;2023-05-12T11:45:45;99761.75;;;17.48;60.55
39793;BME280;26080;42.264;24.536;2023-05-12T11:48:12;99750.75;;;17.54;65.44
39793;BME280;26080;42.264;24.536;2023-05-12T11:50:40;99756.59;;;17.85;65.85
39793;BME280;26080;42.264;24.536;2023-05-12T11:53:10;99748.94;;;18.05;60.21
39793;BME280;26080;42.264;24.536;2023-05-12T11:55:49;99740.66;;;18.23;61.23
39793;BME280;26080;42.264;24.536;2023-05-12T11:58:23;99719.47;;;18.10;62.76
39793;BME280;26080;42.264;24.536;2023-05-12T12:00:51;99740.41;;;18.50;59.83
39793;BME280;26080;42.264;24.536;2023-05-12T12:03:17;99724.75;;;18.47;61.60
39793;BME280;26080;42.264;24.536;2023-05-12T12:05:55;99732.41;;;18.62;60.67
39793;BME280;26080;42.264;24.536;2023-05-12T12:08:21;99736.50;;;18.55;60.12
39793;BME280;26080;42.264;24.536;2023-05-12T12:10:46;99735.81;;;18.41;57.07
39793;BME280;26080;42.264;24.536;2023-05-12T12:13:21;99734.84;;;18.05;56.91
39793;BME280;26080;42.264;24.536;2023-05-12T12:15:49;99726.78;;;17.94;60.07
39793;BME280;26080;42.264;24.536;2023-05-12T12:18:14;99732.94;;;17.94;58.96
39793;BME280;26080;42.264;24.536;2023-05-12T12:20:46;99728.06;;;18.01;60.70
39793;BME280;26080;42.264;24.536;2023-05-12T12:23:11;99696.28;;;17.88;59.98
39793;BME280;26080;42.264;24.536;2023-05-12T12:25:37;99721.19;;;18.35;61.31
39793;BME280;26080;42.264;24.536;2023-05-12T12:28:03;99705.25;;;18.35;60.22
39793;BME280;26080;42.264;24.536;2023-05-12T12:30:28;99721.31;;;18.57;63.05
39793;BME280;26080;42.264;24.536;2023-05-12T12:32:54;99722.13;;;18.71;58.42
39793;BME280;26080;42.264;24.536;2023-05-12T12:35:19;99717.56;;;18.36;54.77
39793;BME280;26080;42.264;24.536;2023-05-12T12:37:45;99718.28;;;18.14;53.53
39793;BME280;26080;42.264;24.536;2023-05-12T12:40:17;99716.06;;;18.08;58.11
39793;BME280;26080;42.264;24.536;2023-05-12T12:42:42;99717.66;;;18.11;60.46
39793;BME280;26080;42.264;24.536;2023-05-12T12:45:08;99706.56;;;18.29;61.17
39793;BME280;26080;42.264;24.536;2023-05-12T12:47:35;99717.38;;;18.39;53.50
39793;BME280;26080;42.264;24.536;2023-05-12T12:50:01;99708.38;;;18.29;57.79
39793;BME280;26080;42.264;24.536;2023-05-12T12:52:26;99712.94;;;18.27;54.20
39793;BME280;26080;42.264;24.536;2023-05-12T12:54:52;99704.38;;;18.23;51.71